Valparaiso, Indiana
Current Conditions -  °F | °C
As of 1:09 PM on Thursday 18 Dec 2014 (Local Time) from KVPZ Reporting Station
Broken Clouds Broken Clouds  
Wind Chill: 19°   Ceiling: 12000
Heat Index: 26°   Visibility: 10mi
Dew Point: 18°   Wind: 6mph
Humidity: 71%   Direction: NA
Pressure: 30.23"   Gusts: NA
Location:  41.47°N, 87.06°W
Report Text: KVPZ 181909Z AUTO VRB05KT 10SM SCT025 BKN120 M03/M08 A3023 RMK AO2 T10331078 TSNO
Loading
Personal Weather Stations






























Interactive Weather Map New forecast layout! Learn more

10-Day Weather Forecast

Advertisements
Track Severe Weather on mobile